Time;durP1;ratioP1;P1;durP2;ratioP2;P2;SDS_P1;SDS_P2;PMS_P1;PMS_P2;Temp;Humidity;BMP_temperature;BMP_pressure;BME280_temperature;BME280_humidity;BME280_pressure;Samples;Min_cycle;Max_cycle;Signal;HPM_P1;HPM_P2
2024/03/17 00:02:13;;;;;;;8.95;3.70;;;5.90;99.90;;;;;;5069992;28;20496;-69
2024/03/17 00:04:39;;;;;;;9.73;3.47;;;5.80;99.90;;;;;;5071440;28;20052;-68
2024/03/17 00:07:05;;;;;;;8.63;2.90;;;5.80;99.90;;;;;;5069845;28;20090;-70
2024/03/17 00:09:30;;;;;;;7.72;3.20;;;5.80;99.90;;;;;;5071048;28;20063;-69
2024/03/17 00:11:56;;;;;;;9.23;3.30;;;5.80;99.90;;;;;;5069669;28;20123;-69
2024/03/17 00:14:22;;;;;;;14.68;3.75;;;5.80;99.90;;;;;;5071430;28;20071;-69
2024/03/17 00:16:48;;;;;;;11.13;3.47;;;5.80;99.90;;;;;;5071484;28;20033;-69
2024/03/17 00:19:16;;;;;;;7.80;3.00;;;5.80;99.90;;;;;;5071043;28;20035;-69
2024/03/17 00:21:42;;;;;;;7.95;3.25;;;5.70;99.90;;;;;;5074614;28;20499;-69
2024/03/17 00:24:09;;;;;;;7.13;3.50;;;5.70;99.90;;;;;;5078021;28;20029;-69
2024/03/17 00:26:35;;;;;;;8.18;3.55;;;5.60;99.90;;;;;;5077992;28;20056;-69
2024/03/17 00:29:03;;;;;;;6.05;2.92;;;5.60;99.90;;;;;;5077987;28;20040;-69
2024/03/17 00:31:28;;;;;;;6.18;3.08;;;5.60;99.90;;;;;;5076954;28;20048;-69
2024/03/17 00:33:54;;;;;;;8.40;3.72;;;5.60;99.90;;;;;;5077489;28;20556;-69
2024/03/17 00:36:20;;;;;;;8.70;3.15;;;5.50;99.90;;;;;;5076597;28;20070;-69
2024/03/17 00:38:45;;;;;;;10.30;3.60;;;5.50;99.90;;;;;;5077658;28;20044;-69
2024/03/17 00:41:11;;;;;;;7.57;4.20;;;5.50;99.90;;;;;;5078151;28;20035;-69
2024/03/17 00:43:37;;;;;;;4.45;3.30;;;5.40;99.90;;;;;;5076381;28;20057;-69
2024/03/17 00:46:03;;;;;;;10.13;3.38;;;5.40;99.90;;;;;;5076492;28;20048;-69
2024/03/17 00:48:29;;;;;;;6.40;3.80;;;5.40;99.90;;;;;;5076844;28;20123;-69
2024/03/17 00:50:58;;;;;;;12.95;3.95;;;5.30;99.90;;;;;;5077619;28;20079;-69
2024/03/17 00:53:28;;;;;;;6.00;3.35;;;5.30;99.90;;;;;;5077186;28;20403;-69
2024/03/17 00:56:00;;;;;;;7.93;3.80;;;5.30;99.90;;;;;;5075743;28;20045;-68
2024/03/17 00:58:26;;;;;;;11.02;4.80;;;5.20;99.90;;;;;;5056439;28;20555;-69
2024/03/17 01:00:52;;;;;;;10.88;3.30;;;5.30;99.90;;;;;;5057505;28;20032;-69
2024/03/17 01:03:18;;;;;;;9.55;3.42;;;5.20;99.90;;;;;;5056246;28;20039;-69
2024/03/17 01:05:47;;;;;;;7.93;3.20;;;5.20;99.90;;;;;;5057438;28;20086;-69
2024/03/17 01:08:15;;;;;;;8.63;4.35;;;5.20;99.90;;;;;;5056671;28;20093;-69
2024/03/17 01:10:41;;;;;;;7.85;3.85;;;5.20;99.90;;;;;;5056346;28;20040;-69
2024/03/17 01:13:08;;;;;;;9.80;3.70;;;5.20;99.90;;;;;;5055843;28;20128;-69
2024/03/17 01:15:35;;;;;;;10.15;3.53;;;5.10;99.90;;;;;;5056271;28;20040;-69
2024/03/17 01:18:01;;;;;;;12.75;4.03;;;5.10;99.90;;;;;;5057539;28;20048;-69
2024/03/17 01:20:26;;;;;;;9.18;3.88;;;5.10;99.90;;;;;;5055894;28;20100;-69
2024/03/17 01:22:52;;;;;;;8.98;4.03;;;5.00;99.90;;;;;;5057201;28;20114;-69
2024/03/17 01:25:18;;;;;;;9.35;4.00;;;4.90;99.90;;;;;;5057543;28;20063;-70
2024/03/17 01:27:44;;;;;;;9.68;4.32;;;5.00;99.90;;;;;;5056394;28;20040;-70
2024/03/17 01:30:10;;;;;;;9.15;4.32;;;4.90;99.90;;;;;;5055952;28;20044;-69
2024/03/17 01:32:36;;;;;;;9.38;3.88;;;4.90;99.90;;;;;;5054002;28;20091;-69
2024/03/17 01:35:02;;;;;;;10.13;4.07;;;4.90;99.90;;;;;;5052749;28;20479;-70
2024/03/17 01:37:31;;;;;;;9.13;3.97;;;4.90;99.90;;;;;;5052825;28;20052;-69
2024/03/17 01:40:00;;;;;;;13.25;3.70;;;4.90;99.90;;;;;;5052909;28;20045;-69
2024/03/17 01:42:26;;;;;;;12.80;4.20;;;4.80;99.90;;;;;;5053647;28;20566;-69
2024/03/17 01:44:51;;;;;;;9.40;3.85;;;4.90;99.90;;;;;;5054249;28;20037;-69
2024/03/17 01:47:18;;;;;;;6.53;3.65;;;4.80;99.90;;;;;;5053869;28;20037;-69
2024/03/17 01:49:51;;;;;;;9.23;3.85;;;4.70;99.90;;;;;;5053963;28;20076;-69
2024/03/17 01:52:18;;;;;;;9.23;2.83;;;4.70;99.90;;;;;;5052209;28;20044;-69
2024/03/17 01:54:46;;;;;;;8.73;3.05;;;4.80;99.90;;;;;;5053930;28;20451;-69
2024/03/17 01:57:13;;;;;;;5.97;3.17;;;4.60;99.90;;;;;;5052606;28;20044;-69
2024/03/17 01:59:39;;;;;;;8.63;3.00;;;4.60;99.90;;;;;;5053561;28;20037;-69
2024/03/17 02:02:06;;;;;;;6.10;3.03;;;4.60;99.90;;;;;;5053174;28;20033;-69
2024/03/17 02:04:31;;;;;;;7.65;3.42;;;4.50;99.90;;;;;;5053644;28;20405;-69
2024/03/17 02:06:57;;;;;;;10.68;3.03;;;4.60;99.90;;;;;;5052297;28;20041;-69
2024/03/17 02:09:23;;;;;;;8.20;2.70;;;4.60;99.90;;;;;;5053489;28;20036;-69
2024/03/17 02:11:48;;;;;;;7.50;3.30;;;4.50;99.90;;;;;;5053185;28;20412;-69
2024/03/17 02:14:17;;;;;;;4.82;2.88;;;4.60;99.90;;;;;;5052569;28;20045;-69
2024/03/17 02:16:43;;;;;;;13.07;3.10;;;4.60;99.90;;;;;;5051839;28;20084;-69
2024/03/17 02:19:09;;;;;;;6.40;2.58;;;4.60;99.90;;;;;;5053147;28;20037;-69
2024/03/17 02:21:35;;;;;;;6.95;3.15;;;4.60;99.90;;;;;;5052980;28;20590;-69
2024/03/17 02:24:01;;;;;;;5.97;3.67;;;4.60;99.90;;;;;;5051818;28;20116;-69
2024/03/17 02:26:27;;;;;;;9.68;3.47;;;4.50;99.90;;;;;;5051670;28;20455;-69
2024/03/17 02:28:53;;;;;;;7.70;3.85;;;4.60;99.90;;;;;;5051423;28;20063;-70
2024/03/17 02:31:19;;;;;;;8.10;2.72;;;4.60;99.90;;;;;;5051557;28;20110;-69
2024/03/17 02:33:45;;;;;;;4.85;2.78;;;4.60;99.90;;;;;;5052566;28;20500;-69
2024/03/17 02:36:11;;;;;;;8.95;3.08;;;4.50;99.90;;;;;;5051749;28;20037;-69
2024/03/17 02:41:26;;;;;;;6.43;2.75;;;4.50;99.90;;;;;;5052758;28;20052;-69
2024/03/17 02:43:52;;;;;;;5.90;2.60;;;4.50;99.90;;;;;;5050866;28;20427;-69
2024/03/17 02:46:18;;;;;;;10.68;3.78;;;4.50;99.90;;;;;;5051283;28;20074;-68
2024/03/17 02:48:47;;;;;;;6.53;2.72;;;4.60;99.90;;;;;;5052739;28;20093;-69
2024/03/17 02:51:19;;;;;;;7.03;3.10;;;4.60;99.90;;;;;;5051837;28;20045;-69
2024/03/17 02:53:45;;;;;;;11.45;3.67;;;4.50;99.90;;;;;;5051039;28;20519;-69
2024/03/17 02:56:12;;;;;;;7.50;2.83;;;4.50;99.90;;;;;;5051198;28;20041;-69
2024/03/17 02:58:38;;;;;;;5.53;2.70;;;4.50;99.90;;;;;;5052947;28;20048;-69
2024/03/17 03:01:05;;;;;;;4.97;2.70;;;4.40;99.90;;;;;;5051375;28;20086;-68
2024/03/17 03:03:32;;;;;;;6.47;2.80;;;4.40;99.90;;;;;;5052203;28;20033;-69
2024/03/17 03:06:00;;;;;;;7.05;3.15;;;4.40;99.90;;;;;;5067124;28;20127;-69
2024/03/17 03:08:26;;;;;;;7.43;2.58;;;4.40;99.90;;;;;;5056148;28;20037;-69
2024/03/17 03:10:52;;;;;;;8.57;2.72;;;4.40;99.90;;;;;;5070454;28;20037;-69
2024/03/17 03:13:19;;;;;;;8.20;3.03;;;4.40;99.90;;;;;;5070903;28;20504;-68
2024/03/17 03:15:47;;;;;;;6.97;2.90;;;4.30;99.90;;;;;;5054200;28;20036;-69
2024/03/17 03:18:14;;;;;;;8.60;2.80;;;4.30;99.90;;;;;;5071051;28;20040;-69
2024/03/17 03:20:39;;;;;;;19.00;3.72;;;4.30;99.90;;;;;;5070826;28;20404;-71
2024/03/17 03:23:05;;;;;;;9.18;3.13;;;4.30;99.90;;;;;;5070459;28;20032;-69
2024/03/17 03:25:31;;;;;;;8.90;2.67;;;4.40;99.90;;;;;;5070438;28;20458;-69
2024/03/17 03:27:57;;;;;;;7.45;3.35;;;4.40;99.90;;;;;;5072374;28;20169;-68
2024/03/17 03:30:24;;;;;;;12.05;3.78;;;4.40;99.90;;;;;;5071736;28;20508;-69
2024/03/17 03:32:49;;;;;;;7.63;3.33;;;4.50;99.90;;;;;;5070289;28;20083;-69
2024/03/17 03:35:15;;;;;;;11.48;3.47;;;4.30;99.90;;;;;;5071861;28;20072;-69
2024/03/17 03:37:41;;;;;;;11.23;3.67;;;4.30;99.90;;;;;;5071922;28;20037;-69
2024/03/17 03:40:17;;;;;;;6.90;2.97;;;4.40;99.90;;;;;;5071631;28;20068;-69
2024/03/17 03:42:46;;;;;;;9.35;3.20;;;4.40;99.90;;;;;;5071571;28;20373;-69
2024/03/17 03:45:12;;;;;;;10.15;3.25;;;4.50;99.90;;;;;;5071878;28;20054;-69
2024/03/17 03:47:42;;;;;;;6.85;3.95;;;4.50;99.90;;;;;;5071846;28;20436;-69
2024/03/17 03:50:11;;;;;;;8.90;3.33;;;4.50;99.90;;;;;;5070433;28;20435;-69
2024/03/17 03:52:42;;;;;;;13.20;2.88;;;4.50;99.90;;;;;;5061830;28;20044;-69
2024/03/17 03:55:15;;;;;;;5.97;2.90;;;4.50;99.90;;;;;;5069689;28;20085;-69
2024/03/17 03:57:47;;;;;;;8.05;3.35;;;4.50;99.90;;;;;;5071796;28;20195;-69
2024/03/17 04:00:21;;;;;;;8.40;3.55;;;4.50;99.90;;;;;;5070088;28;20523;-69
2024/03/17 04:02:48;;;;;;;17.65;4.60;;;4.50;99.90;;;;;;5069987;28;20452;-68
2024/03/17 04:05:13;;;;;;;10.70;3.95;;;4.70;99.90;;;;;;5053586;28;20055;-69
2024/03/17 04:07:40;;;;;;;9.25;3.83;;;4.60;99.90;;;;;;5071805;28;20037;-69
2024/03/17 04:10:06;;;;;;;13.60;3.60;;;4.60;99.90;;;;;;5071563;28;20036;-69
2024/03/17 04:12:32;;;;;;;10.88;3.85;;;4.60;99.90;;;;;;5070191;28;20408;-69
2024/03/17 04:14:59;;;;;;;8.07;3.65;;;4.70;99.90;;;;;;5071659;28;20037;-69
2024/03/17 04:17:24;;;;;;;7.55;3.40;;;4.60;99.90;;;;;;5071412;28;20557;-69
2024/03/17 04:19:51;;;;;;;9.55;3.20;;;4.60;99.90;;;;;;5071227;28;20048;-69
2024/03/17 04:22:17;;;;;;;10.93;3.80;;;4.70;99.90;;;;;;5069818;28;20047;-69
2024/03/17 04:24:44;;;;;;;9.98;3.42;;;4.70;99.90;;;;;;5070449;28;20448;-71
2024/03/17 04:27:10;;;;;;;7.75;3.80;;;4.70;99.90;;;;;;5071332;28;20396;-69
2024/03/17 04:29:35;;;;;;;7.13;2.60;;;4.70;99.90;;;;;;5069807;28;20047;-69
2024/03/17 04:32:01;;;;;;;9.15;4.05;;;4.60;99.90;;;;;;5070817;28;20040;-69
2024/03/17 04:34:30;;;;;;;12.93;4.43;;;4.60;99.90;;;;;;5071466;28;20028;-71
2024/03/17 04:36:57;;;;;;;12.75;4.85;;;4.70;99.90;;;;;;5071425;28;20044;-71
2024/03/17 04:39:23;;;;;;;7.30;3.80;;;4.70;99.90;;;;;;5070053;28;20496;-69
2024/03/17 04:41:49;;;;;;;7.50;3.67;;;4.60;99.90;;;;;;5071060;28;20082;-70
2024/03/17 04:44:16;;;;;;;6.35;3.60;;;4.70;99.90;;;;;;5069986;28;20052;-71
2024/03/17 04:46:41;;;;;;;7.53;3.60;;;4.60;99.90;;;;;;5071064;28;20429;-71
2024/03/17 04:49:08;;;;;;;11.10;3.88;;;4.70;99.90;;;;;;5071150;28;20167;-69
2024/03/17 04:51:34;;;;;;;10.70;3.92;;;4.80;99.90;;;;;;5071071;28;20097;-69
2024/03/17 04:54:03;;;;;;;11.48;4.05;;;4.80;99.90;;;;;;5069905;28;20048;-69
2024/03/17 04:56:28;;;;;;;11.02;4.72;;;4.70;99.90;;;;;;5069783;28;20125;-71
2024/03/17 04:58:54;;;;;;;11.30;4.32;;;4.70;99.90;;;;;;5070834;28;20082;-69
2024/03/17 05:01:19;;;;;;;9.80;4.65;;;4.60;99.90;;;;;;5071079;28;20044;-71
2024/03/17 05:03:45;;;;;;;10.38;4.88;;;4.70;99.90;;;;;;5069358;28;20119;-71
2024/03/17 05:06:11;;;;;;;9.43;4.72;;;4.70;99.90;;;;;;5069890;28;20048;-69
2024/03/17 05:08:37;;;;;;;8.82;4.22;;;4.70;99.90;;;;;;5074538;28;20040;-69
2024/03/17 05:11:05;;;;;;;9.80;4.47;;;4.60;99.90;;;;;;5073158;28;20040;-69
2024/03/17 05:13:32;;;;;;;9.63;5.22;;;4.70;99.90;;;;;;5072878;28;20119;-69
2024/03/17 05:15:58;;;;;;;12.07;4.50;;;4.70;99.90;;;;;;5074428;28;20094;-69
2024/03/17 05:18:25;;;;;;;11.63;5.60;;;4.70;99.90;;;;;;5074779;28;20450;-69
2024/03/17 05:21:01;;;;;;;13.45;5.63;;;4.70;99.90;;;;;;5074090;28;20043;-69
2024/03/17 05:23:28;;;;;;;9.45;5.25;;;4.70;99.90;;;;;;5074166;28;20123;-69
2024/03/17 05:25:55;;;;;;;16.13;5.70;;;4.70;99.90;;;;;;5073109;28;20044;-68
2024/03/17 05:28:21;;;;;;;10.57;6.18;;;4.70;99.90;;;;;;5073018;28;20055;-69
2024/03/17 05:30:48;;;;;;;16.27;6.93;;;4.70;99.90;;;;;;5072964;28;20079;-69
2024/03/17 05:33:14;;;;;;;14.80;5.95;;;4.70;99.90;;;;;;5055904;28;20055;-69
2024/03/17 05:35:39;;;;;;;12.52;6.10;;;4.70;99.90;;;;;;5072776;28;20070;-69
2024/03/17 05:38:05;;;;;;;16.55;6.05;;;4.70;99.90;;;;;;5073997;28;20035;-69
2024/03/17 05:40:31;;;;;;;9.40;6.07;;;4.80;99.90;;;;;;5073958;28;20403;-69
2024/03/17 05:42:56;;;;;;;15.07;7.25;;;4.80;99.90;;;;;;5073621;28;20032;-69
2024/03/17 05:45:22;;;;;;;10.10;5.78;;;4.80;99.90;;;;;;5072701;28;20051;-69
2024/03/17 05:47:50;;;;;;;11.05;6.70;;;4.90;99.90;;;;;;5074106;28;20075;-69
2024/03/17 05:50:16;;;;;;;14.90;6.80;;;5.00;99.90;;;;;;5073854;28;20094;-69
2024/03/17 05:52:41;;;;;;;10.10;5.60;;;5.00;99.90;;;;;;5073750;28;20078;-69
2024/03/17 05:55:07;;;;;;;11.25;5.78;;;4.90;99.90;;;;;;5072847;28;20048;-69
2024/03/17 05:57:33;;;;;;;14.43;4.78;;;5.10;99.90;;;;;;5072717;28;20051;-69
2024/03/17 05:59:59;;;;;;;12.88;5.45;;;5.10;99.90;;;;;;5072453;28;20542;-69
2024/03/17 06:02:24;;;;;;;14.60;6.03;;;5.10;99.90;;;;;;5072139;28;20423;-69
2024/03/17 06:04:50;;;;;;;9.27;5.13;;;5.10;99.90;;;;;;5072498;28;20059;-69
2024/03/17 06:07:15;;;;;;;9.50;5.75;;;5.00;99.90;;;;;;5072431;28;20036;-69
2024/03/17 06:09:41;;;;;;;17.80;5.88;;;5.10;99.90;;;;;;5073603;28;20082;-69
2024/03/17 06:12:07;;;;;;;7.88;4.47;;;5.10;99.90;;;;;;5071902;28;20539;-69
2024/03/17 06:14:34;;;;;;;14.52;4.88;;;5.10;99.90;;;;;;5074422;28;20147;-69
2024/03/17 06:17:00;;;;;;;15.93;5.28;;;5.00;99.90;;;;;;5073284;28;20078;-69
2024/03/17 06:19:25;;;;;;;9.27;4.55;;;5.10;99.90;;;;;;5073064;28;20036;-69
2024/03/17 06:21:51;;;;;;;7.60;5.68;;;5.10;99.90;;;;;;5073124;28;20090;-69
2024/03/17 06:24:17;;;;;;;14.77;5.97;;;5.10;99.90;;;;;;5072279;28;20442;-69
2024/03/17 06:26:42;;;;;;;9.27;5.65;;;5.20;99.90;;;;;;5071997;28;20086;-69
2024/03/17 06:29:08;;;;;;;11.65;4.88;;;5.20;99.90;;;;;;5073265;28;20032;-69
2024/03/17 06:31:34;;;;;;;14.73;5.15;;;5.20;99.90;;;;;;5073339;28;20546;-69
2024/03/17 06:33:59;;;;;;;13.52;5.68;;;5.10;99.90;;;;;;5072087;28;20538;-69
2024/03/17 06:36:25;;;;;;;9.75;4.28;;;5.20;99.90;;;;;;5071979;28;20111;-69
2024/03/17 06:38:51;;;;;;;11.82;4.75;;;5.30;99.90;;;;;;5073114;28;20064;-69
2024/03/17 06:41:17;;;;;;;8.25;4.38;;;5.20;99.90;;;;;;5071701;28;20040;-69
2024/03/17 06:43:43;;;;;;;13.65;4.78;;;5.30;99.90;;;;;;5072860;28;20040;-69
2024/03/17 06:46:09;;;;;;;7.18;4.55;;;5.40;99.90;;;;;;5055061;28;20045;-69
2024/03/17 06:48:35;;;;;;;8.40;4.45;;;5.40;99.90;;;;;;5071722;28;20047;-69
2024/03/17 06:51:01;;;;;;;12.43;4.20;;;5.40;99.90;;;;;;5072666;28;20044;-69
2024/03/17 06:53:27;;;;;;;13.98;5.63;;;5.50;99.90;;;;;;5072416;28;20142;-69
2024/03/17 06:55:57;;;;;;;14.52;3.75;;;5.60;99.90;;;;;;5071333;28;20032;-69
2024/03/17 06:58:24;;;;;;;9.10;4.03;;;5.60;99.90;;;;;;5072929;28;20110;-69
2024/03/17 07:01:01;;;;;;;8.77;4.00;;;5.70;99.90;;;;;;5071409;28;20116;-69
2024/03/17 07:03:28;;;;;;;8.70;3.95;;;5.70;99.90;;;;;;5072386;28;20045;-69
2024/03/17 07:05:59;;;;;;;8.10;3.70;;;5.90;99.90;;;;;;5072690;28;20402;-69
2024/03/17 07:08:25;;;;;;;12.57;4.82;;;5.80;99.90;;;;;;5072516;28;20090;-69
2024/03/17 07:11:02;;;;;;;6.55;3.05;;;5.90;99.90;;;;;;5072356;28;20537;-69
2024/03/17 07:13:29;;;;;;;11.18;3.03;;;6.00;99.90;;;;;;5070520;28;20381;-69
2024/03/17 07:15:55;;;;;;;6.30;3.55;;;6.00;99.90;;;;;;5072058;28;20529;-69
2024/03/17 07:18:21;;;;;;;10.32;3.55;;;6.10;99.90;;;;;;5072216;28;20037;-69
2024/03/17 07:20:47;;;;;;;8.57;3.80;;;6.10;99.90;;;;;;5070579;28;20407;-69
2024/03/17 07:23:15;;;;;;;10.43;3.40;;;6.20;99.90;;;;;;5071962;28;20072;-69
2024/03/17 07:25:42;;;;;;;10.07;3.58;;;6.30;99.90;;;;;;5072191;28;20119;-69
2024/03/17 07:28:08;;;;;;;8.60;3.60;;;6.40;99.90;;;;;;5072308;28;20040;-69
2024/03/17 07:30:34;;;;;;;7.05;3.42;;;6.40;99.90;;;;;;5070933;28;20070;-69
2024/03/17 07:32:59;;;;;;;9.52;4.10;;;6.60;99.90;;;;;;5070327;28;20032;-69
2024/03/17 07:35:25;;;;;;;8.55;4.03;;;6.80;99.90;;;;;;5071659;28;20117;-68
2024/03/17 07:37:50;;;;;;;11.00;3.70;;;6.90;99.90;;;;;;5072157;28;20051;-69
2024/03/17 07:40:16;;;;;;;11.90;4.05;;;6.90;99.90;;;;;;5071616;28;20047;-69
2024/03/17 07:42:42;;;;;;;13.13;3.40;;;6.90;99.90;;;;;;5070411;28;20039;-69
2024/03/17 07:45:08;;;;;;;9.38;3.70;;;7.10;99.90;;;;;;5071903;28;20496;-69
2024/03/17 07:47:37;;;;;;;9.15;3.97;;;7.10;99.90;;;;;;5071780;28;20051;-68
2024/03/17 07:50:05;;;;;;;9.45;3.50;;;7.20;99.90;;;;;;5071388;28;20067;-69
2024/03/17 07:52:33;;;;;;;12.98;4.20;;;7.40;99.90;;;;;;5071175;28;20438;-71
2024/03/17 07:54:59;;;;;;;9.93;2.58;;;7.70;99.90;;;;;;5071633;28;20044;-69
2024/03/17 07:57:24;;;;;;;11.77;3.00;;;8.00;99.90;;;;;;5071701;28;20032;-69
2024/03/17 07:59:51;;;;;;;9.73;3.55;;;8.30;99.90;;;;;;5071520;28;20043;-69
2024/03/17 08:02:17;;;;;;;7.70;3.42;;;8.40;99.90;;;;;;5071186;28;20033;-69
2024/03/17 08:04:44;;;;;;;5.90;2.90;;;8.30;99.90;;;;;;5071976;28;20032;-69
2024/03/17 08:07:10;;;;;;;7.60;2.88;;;8.20;99.90;;;;;;5069847;28;20097;-69
2024/03/17 08:09:36;;;;;;;6.47;2.40;;;8.20;99.90;;;;;;5069502;28;20036;-70
2024/03/17 08:12:04;;;;;;;6.30;2.25;;;8.20;99.90;;;;;;5070756;28;20032;-71
2024/03/17 08:14:30;;;;;;;10.05;3.72;;;8.10;99.90;;;;;;5071510;28;20116;-69
2024/03/17 08:16:56;;;;;;;9.05;2.53;;;8.10;99.90;;;;;;5071250;28;20068;-68
2024/03/17 08:19:21;;;;;;;6.28;2.70;;;8.10;99.90;;;;;;5069825;28;20072;-69
2024/03/17 08:21:47;;;;;;;8.82;3.00;;;8.00;99.90;;;;;;5071075;28;20041;-69
2024/03/17 08:24:13;;;;;;;7.75;2.55;;;8.00;99.90;;;;;;5070051;28;20037;-68
2024/03/17 08:26:40;;;;;;;9.65;2.70;;;8.00;99.90;;;;;;5071148;28;20029;-69
2024/03/17 08:29:06;;;;;;;8.63;3.00;;;8.00;99.90;;;;;;5069986;28;20051;-69
2024/03/17 08:31:32;;;;;;;10.40;3.15;;;8.00;99.90;;;;;;5070334;28;20036;-69
2024/03/17 08:33:58;;;;;;;10.20;2.30;;;8.00;99.90;;;;;;5070936;28;20515;-69
2024/03/17 08:36:24;;;;;;;8.43;2.38;;;8.00;99.90;;;;;;5071198;28;20040;-69
2024/03/17 08:38:50;;;;;;;13.35;3.42;;;8.10;99.90;;;;;;5071174;28;20052;-69
2024/03/17 08:41:16;;;;;;;8.82;2.38;;;8.10;99.90;;;;;;5069639;28;20040;-69
2024/03/17 08:43:43;;;;;;;7.47;2.53;;;8.10;99.90;;;;;;5074770;28;20032;-69
2024/03/17 08:46:10;;;;;;;7.38;2.40;;;8.20;99.90;;;;;;5075039;28;20040;-69
2024/03/17 08:48:40;;;;;;;9.07;2.58;;;8.30;99.90;;;;;;5074207;28;20041;-69
2024/03/17 08:51:07;;;;;;;8.05;2.70;;;8.30;99.90;;;;;;5073904;28;20041;-69
2024/03/17 08:53:33;;;;;;;4.97;2.85;;;8.30;99.90;;;;;;5074720;28;20123;-69
2024/03/17 08:55:59;;;;;;;14.10;2.58;;;8.30;99.90;;;;;;5073524;28;20386;-69
2024/03/17 08:58:25;;;;;;;7.03;2.90;;;8.40;99.90;;;;;;5073195;28;20051;-70
2024/03/17 09:00:51;;;;;;;4.88;2.80;;;8.40;99.90;;;;;;5072589;28;20119;-68
2024/03/17 09:03:17;;;;;;;4.25;2.28;;;8.40;99.90;;;;;;5072899;28;20107;-69
2024/03/17 09:05:45;;;;;;;7.35;3.13;;;8.40;99.90;;;;;;5074742;28;20037;-69
2024/03/17 09:08:16;;;;;;;4.97;2.80;;;8.50;99.90;;;;;;5073216;28;20055;-69
2024/03/17 09:10:42;;;;;;;8.70;2.60;;;8.60;99.90;;;;;;5073432;28;20048;-70
2024/03/17 09:13:19;;;;;;;7.53;2.53;;;8.60;99.90;;;;;;5073137;28;20049;-69
2024/03/17 09:16:01;;;;;;;8.15;2.40;;;8.60;99.90;;;;;;5070676;28;20492;-70
2024/03/17 09:18:27;;;;;;;7.63;2.72;;;8.70;99.90;;;;;;5071214;28;20123;-70
2024/03/17 09:20:57;;;;;;;8.73;3.95;;;8.70;99.90;;;;;;5074318;28;20040;-70
2024/03/17 09:23:24;;;;;;;8.23;2.90;;;8.70;99.90;;;;;;5072689;28;20050;-70
2024/03/17 09:26:00;;;;;;;11.35;3.15;;;8.70;99.90;;;;;;5072815;28;20054;-70
2024/03/17 09:28:27;;;;;;;7.93;2.70;;;8.70;99.90;;;;;;5074520;28;20043;-70
2024/03/17 09:30:53;;;;;;;9.82;2.88;;;8.70;99.90;;;;;;5073049;28;20068;-70
2024/03/17 09:33:20;;;;;;;5.85;2.95;;;8.80;99.90;;;;;;5073854;28;20516;-70
2024/03/17 09:36:07;;;;;;;11.25;3.85;;;8.90;99.90;;;;;;5072921;28;20458;-70
2024/03/17 09:38:34;;;;;;;9.10;3.67;;;9.00;99.90;;;;;;5057217;28;20033;-70
2024/03/17 09:41:03;;;;;;;7.63;3.50;;;9.20;99.90;;;;;;5054137;28;20045;-70
2024/03/17 09:43:34;;;;;;;7.32;3.42;;;9.30;99.90;;;;;;5053631;28;20033;-71
2024/03/17 09:46:02;;;;;;;8.55;3.40;;;9.30;99.90;;;;;;5054088;28;20072;-70
2024/03/17 09:48:28;;;;;;;10.50;3.72;;;9.50;99.90;;;;;;5060917;28;20051;-70
2024/03/17 09:50:56;;;;;;;11.77;3.83;;;9.50;99.90;;;;;;5073625;28;20400;-70
2024/03/17 09:53:27;;;;;;;9.35;3.92;;;9.50;99.90;;;;;;5072626;28;20051;-70
2024/03/17 09:56:09;;;;;;;10.95;4.00;;;9.60;99.90;;;;;;5073715;28;20465;-71
2024/03/17 09:58:35;;;;;;;10.15;3.70;;;9.70;99.90;;;;;;5072603;28;20040;-70
2024/03/17 10:01:01;;;;;;;8.93;4.50;;;9.80;99.90;;;;;;5073537;28;20052;-70
2024/03/17 10:03:52;;;;;;;11.15;4.30;;;9.80;99.90;;;;;;5073235;28;20036;-70
2024/03/17 10:06:25;;;;;;;9.00;4.55;;;9.80;99.90;;;;;;5072396;28;20059;-69
2024/03/17 10:08:55;;;;;;;7.95;4.93;;;9.80;99.90;;;;;;5073292;28;20040;-70
2024/03/17 10:11:31;;;;;;;9.73;5.15;;;9.80;99.90;;;;;;5072386;28;20048;-70
2024/03/17 10:14:05;;;;;;;10.02;4.15;;;9.90;99.90;;;;;;5073600;28;20071;-71
2024/03/17 10:16:32;;;;;;;9.13;4.60;;;9.90;99.90;;;;;;5073436;28;20045;-71
2024/03/17 10:19:23;;;;;;;8.85;4.15;;;9.90;99.90;;;;;;5073350;28;20032;-70
2024/03/17 10:21:50;;;;;;;7.13;3.75;;;9.90;99.90;;;;;;5071636;28;20082;-70
2024/03/17 10:24:23;;;;;;;11.30;5.68;;;10.00;99.90;;;;;;5073608;28;20480;-69
2024/03/17 10:26:50;;;;;;;12.13;4.57;;;10.10;99.90;;;;;;5073165;28;20111;-69
2024/03/17 10:29:24;;;;;;;13.80;5.65;;;10.10;99.90;;;;;;5073147;28;20039;-71
2024/03/17 10:31:54;;;;;;;9.20;4.22;;;10.10;99.90;;;;;;5072985;28;20408;-69
2024/03/17 10:34:20;;;;;;;12.05;5.25;;;10.20;99.90;;;;;;5071533;28;20495;-70
2024/03/17 10:36:49;;;;;;;13.80;5.95;;;10.30;99.90;;;;;;5072856;28;20055;-70
2024/03/17 10:39:28;;;;;;;9.73;5.78;;;10.40;99.90;;;;;;5071592;28;20040;-69
2024/03/17 10:41:57;;;;;;;13.85;5.63;;;10.50;99.90;;;;;;5072613;28;20588;-70
2024/03/17 10:44:23;;;;;;;15.63;5.72;;;10.60;99.90;;;;;;5071472;28;20036;-69
2024/03/17 10:46:52;;;;;;;10.95;5.78;;;10.60;99.90;;;;;;5072029;28;20040;-70
2024/03/17 10:49:19;;;;;;;12.00;5.90;;;10.70;99.90;;;;;;5069521;28;20514;-70
2024/03/17 10:51:48;;;;;;;13.30;6.10;;;10.80;99.90;;;;;;5070387;28;20040;-69
2024/03/17 10:54:26;;;;;;;10.85;5.72;;;10.80;99.90;;;;;;5067701;28;20047;-70
2024/03/17 10:56:53;;;;;;;13.60;6.13;;;10.90;99.90;;;;;;5071892;28;20040;-69
2024/03/17 10:59:24;;;;;;;12.15;6.40;;;10.90;99.90;;;;;;5072192;28;20222;-70
2024/03/17 11:01:51;;;;;;;11.68;6.20;;;11.00;99.90;;;;;;5065162;28;20037;-70
2024/03/17 11:04:17;;;;;;;11.68;6.18;;;11.00;99.90;;;;;;5072111;28;20028;-71
2024/03/17 11:06:43;;;;;;;13.70;6.55;;;11.00;99.90;;;;;;5071923;28;20044;-69
2024/03/17 11:09:14;;;;;;;11.13;6.10;;;10.90;99.90;;;;;;5071796;28;20090;-69
2024/03/17 11:11:42;;;;;;;12.50;6.38;;;11.00;99.90;;;;;;5071868;28;20087;-70
2024/03/17 11:14:19;;;;;;;11.43;6.63;;;11.00;99.90;;;;;;5071906;28;20080;-69
2024/03/17 11:16:47;;;;;;;11.68;7.10;;;10.90;99.90;;;;;;5070871;28;20086;-70
2024/03/17 11:19:17;;;;;;;14.68;6.90;;;11.00;99.90;;;;;;5070540;28;20122;-70
2024/03/17 11:21:47;;;;;;;12.43;6.80;;;11.00;99.90;;;;;;5070153;28;20094;-70
2024/03/17 11:24:22;;;;;;;13.73;6.88;;;11.10;99.90;;;;;;5070579;28;20037;-69
2024/03/17 11:26:49;;;;;;;13.68;6.68;;;10.90;99.90;;;;;;5078923;22;20133;-72
2024/03/17 11:29:32;;;;;;;11.45;7.55;;;11.10;99.90;;;;;;5073599;28;20436;-72
2024/03/17 11:31:58;;;;;;;14.30;7.65;;;11.10;99.90;;;;;;5073246;28;20046;-73
2024/03/17 11:34:35;;;;;;;14.27;7.85;;;11.10;99.90;;;;;;5091908;28;20027;-73
2024/03/17 11:37:03;;;;;;;9.52;6.20;;;11.20;99.90;;;;;;5091495;28;20534;-73
2024/03/17 11:40:09;;;;;;;9.55;6.53;;;11.20;99.90;;;;;;5091508;28;20032;-73
2024/03/17 11:42:34;;;;;;;13.63;7.50;;;11.20;99.90;;;;;;5091212;28;20036;-73
2024/03/17 11:45:08;;;;;;;12.23;7.10;;;11.20;99.90;;;;;;5091906;28;20518;-72
2024/03/17 11:47:38;;;;;;;13.65;7.65;;;11.30;99.90;;;;;;5091836;28;20089;-73
2024/03/17 11:50:08;;;;;;;12.68;7.13;;;11.40;99.90;;;;;;5091404;28;20035;-73
2024/03/17 11:52:34;;;;;;;12.90;7.32;;;11.60;99.90;;;;;;5091320;28;20055;-73
2024/03/17 11:54:59;;;;;;;12.68;7.57;;;11.60;99.90;;;;;;5091322;28;20028;-74
2024/03/17 11:57:27;;;;;;;10.18;7.35;;;11.60;99.90;;;;;;5090122;28;20103;-73
2024/03/17 11:59:54;;;;;;;10.93;6.90;;;11.60;99.90;;;;;;5091396;28;20028;-73
2024/03/17 12:02:29;;;;;;;15.00;7.13;;;11.60;99.90;;;;;;5089372;28;20085;-73
2024/03/17 12:04:58;;;;;;;13.23;7.43;;;11.60;99.90;;;;;;5089841;28;20060;-73
2024/03/17 12:07:24;;;;;;;11.77;6.93;;;11.60;99.90;;;;;;5085292;28;20514;-74
2024/03/17 12:09:51;;;;;;;11.63;7.13;;;11.70;99.90;;;;;;5088160;28;20036;-74
2024/03/17 12:12:21;;;;;;;14.57;7.22;;;11.70;99.90;;;;;;5091266;28;20060;-73
2024/03/17 12:14:48;;;;;;;12.55;7.15;;;11.70;99.90;;;;;;5090259;28;20028;-71
2024/03/17 12:17:22;;;;;;;14.25;7.97;;;11.70;99.90;;;;;;5081615;28;20036;-72
2024/03/17 12:19:48;;;;;;;13.23;7.70;;;11.60;99.90;;;;;;5086495;28;20108;-72
2024/03/17 12:22:22;;;;;;;11.30;7.93;;;11.60;99.90;;;;;;5081389;28;20434;-72
2024/03/17 12:24:53;;;;;;;12.73;8.60;;;11.60;99.90;;;;;;5091626;28;20036;-72
2024/03/17 12:27:23;;;;;;;14.60;10.00;;;11.60;99.90;;;;;;5089935;28;20043;-73
2024/03/17 12:29:51;;;;;;;12.68;8.93;;;11.60;99.90;;;;;;5090291;28;20408;-72
2024/03/17 12:32:22;;;;;;;11.65;8.32;;;11.70;99.90;;;;;;5091016;28;20032;-74
2024/03/17 12:34:59;;;;;;;26.00;11.40;;;11.70;99.90;;;;;;5090230;28;20442;-73
2024/03/17 12:37:33;;;;;;;17.35;10.20;;;11.80;99.90;;;;;;5090070;28;20075;-72
2024/03/17 12:40:00;;;;;;;14.65;9.38;;;11.80;99.90;;;;;;5091292;28;20036;-73
2024/03/17 12:42:28;;;;;;;15.68;9.10;;;11.90;99.90;;;;;;5090884;28;20036;-72
2024/03/17 12:44:56;;;;;;;11.45;8.10;;;12.00;99.90;;;;;;5091259;28;20036;-72
2024/03/17 12:47:23;;;;;;;11.80;9.25;;;12.00;99.90;;;;;;5090876;28;20040;-72
2024/03/17 12:49:53;;;;;;;17.52;9.43;;;12.10;99.90;;;;;;5090091;28;20040;-72
2024/03/17 12:52:32;;;;;;;13.65;8.82;;;12.20;99.90;;;;;;5089495;28;20031;-72
2024/03/17 13:00:59;;;;;;;13.43;8.68;;;12.00;99.90;;;;;;5091014;28;20076;-72
2024/03/17 13:03:26;;;;;;;11.25;8.15;;;12.10;99.90;;;;;;5090727;28;20032;-72